createdAt,value
2018-09-05T00:00:23.250Z,17.27
2018-09-05T00:02:51.580Z,18.80
2018-09-05T00:05:19.920Z,18.47
2018-09-05T00:07:48.271Z,18.17
2018-09-05T00:10:16.588Z,18.30
2018-09-05T00:12:44.891Z,18.73
2018-09-05T00:15:13.213Z,19.13
2018-09-05T00:17:41.507Z,21.00
2018-09-05T00:20:09.824Z,17.80
2018-09-05T00:22:38.125Z,19.10
2018-09-05T00:25:06.928Z,18.73
2018-09-05T00:27:35.252Z,18.77
2018-09-05T00:30:03.592Z,20.90
2018-09-05T00:32:31.890Z,19.30
2018-09-05T00:35:00.236Z,17.87
2018-09-05T00:37:28.773Z,19.70
2018-09-05T00:39:57.100Z,21.67
2018-09-05T00:42:25.406Z,22.60
2018-09-05T00:44:53.735Z,20.90
2018-09-05T00:47:22.086Z,23.13
2018-09-05T00:49:50.420Z,22.47
2018-09-05T00:52:18.721Z,22.83
2018-09-05T00:54:47.041Z,22.90
2018-09-05T00:57:15.346Z,20.60
2018-09-05T00:59:43.675Z,20.87
2018-09-05T01:02:11.977Z,19.67
2018-09-05T01:04:40.304Z,21.47
2018-09-05T01:07:20.941Z,19.13
2018-09-05T01:09:49.296Z,20.17
2018-09-05T01:12:18.552Z,18.90
2018-09-05T01:14:47.011Z,18.67
2018-09-05T01:17:15.315Z,19.03
2018-09-05T01:19:43.639Z,19.13
2018-09-05T01:22:11.948Z,18.90
2018-09-05T01:24:40.263Z,19.90
2018-09-05T01:27:09.844Z,19.03
2018-09-05T01:29:39.152Z,19.80
2018-09-05T01:32:07.932Z,20.80
2018-09-05T01:34:36.452Z,21.23
2018-09-05T01:37:04.992Z,20.00
2018-09-05T01:39:33.327Z,19.17
2018-09-05T01:42:01.641Z,18.80
2018-09-05T01:44:29.967Z,19.23
2018-09-05T01:46:58.276Z,18.87
2018-09-05T01:49:26.640Z,19.60
2018-09-05T01:51:55.999Z,19.40
2018-09-05T01:54:24.340Z,18.93
2018-09-05T01:56:53.588Z,22.00
2018-09-05T01:59:22.020Z,19.17
2018-09-05T02:01:50.575Z,21.37
2018-09-05T02:04:19.907Z,20.43
2018-09-05T02:06:48.236Z,19.60
2018-09-05T02:09:16.572Z,19.90
2018-09-05T02:11:44.906Z,19.10
2018-09-05T02:14:13.480Z,19.60
2018-09-05T02:16:42.574Z,19.33
2018-09-05T02:19:10.920Z,20.27
2018-09-05T02:21:39.228Z,19.10
2018-09-05T02:24:07.535Z,18.43
2018-09-05T02:26:35.861Z,20.03
2018-09-05T02:29:04.217Z,17.03
2018-09-05T02:31:32.540Z,16.87
2018-09-05T02:34:00.869Z,18.50
2018-09-05T02:36:29.197Z,19.90
2018-09-05T02:38:57.527Z,18.87
2018-09-05T02:41:25.849Z,20.33
2018-09-05T02:43:59.522Z,20.70
2018-09-05T02:46:27.861Z,21.30
2018-09-05T02:48:56.200Z,21.90
2018-09-05T02:51:24.520Z,22.90
2018-09-05T02:53:52.819Z,22.80
2018-09-05T02:56:23.504Z,18.10
2018-09-05T02:58:52.091Z,19.00
2018-09-05T03:01:20.451Z,17.10
2018-09-05T03:03:48.751Z,17.47
2018-09-05T03:06:17.127Z,19.17
2018-09-05T03:08:45.456Z,20.37
2018-09-05T03:11:13.769Z,18.47
2018-09-05T03:13:42.075Z,19.00
2018-09-05T03:16:10.404Z,15.23
2018-09-05T03:18:39.011Z,17.47
2018-09-05T03:21:07.343Z,17.03
2018-09-05T03:23:35.664Z,18.10
2018-09-05T03:26:03.990Z,18.23
2018-09-05T03:28:32.291Z,17.97
2018-09-05T03:31:00.617Z,18.30
2018-09-05T03:33:28.916Z,17.50
2018-09-05T03:35:57.237Z,18.30
2018-09-05T03:38:25.590Z,17.20
2018-09-05T03:40:53.916Z,17.93
2018-09-05T03:43:22.221Z,18.10
2018-09-05T03:45:50.552Z,19.00
2018-09-05T03:48:18.867Z,17.20
2018-09-05T03:50:47.200Z,17.30
2018-09-05T03:53:15.516Z,20.07
2018-09-05T03:55:43.857Z,19.53
2018-09-05T03:58:12.163Z,19.23
2018-09-05T04:00:40.493Z,19.20
2018-09-05T04:03:08.804Z,18.87
2018-09-05T04:05:37.129Z,19.87
2018-09-05T04:08:05.451Z,18.00
2018-09-05T04:10:33.765Z,19.20
2018-09-05T04:13:02.072Z,17.73
2018-09-05T04:15:30.400Z,20.77
2018-09-05T04:17:58.709Z,20.10
2018-09-05T04:20:27.094Z,20.60
2018-09-05T04:22:55.501Z,20.67
2018-09-05T04:25:23.821Z,20.10
2018-09-05T04:27:52.136Z,22.47
2018-09-05T04:30:20.467Z,20.97
2018-09-05T04:32:48.789Z,21.83
2018-09-05T04:35:17.144Z,20.13
2018-09-05T04:37:45.448Z,22.00
2018-09-05T04:40:13.790Z,21.00
2018-09-05T04:42:42.124Z,19.80
2018-09-05T04:45:10.438Z,18.60
2018-09-05T04:47:38.780Z,20.43
2018-09-05T04:50:07.105Z,20.83
2018-09-05T04:52:35.480Z,19.93
2018-09-05T04:55:03.762Z,21.70
2018-09-05T04:57:32.092Z,21.03
2018-09-05T05:00:00.396Z,18.80
2018-09-05T05:02:28.731Z,17.57
2018-09-05T05:04:57.036Z,17.43
2018-09-05T05:07:25.389Z,17.70
2018-09-05T05:09:53.693Z,17.73
2018-09-05T05:12:22.032Z,17.20
2018-09-05T05:14:50.345Z,17.70
2018-09-05T05:17:18.684Z,16.67
2018-09-05T05:19:46.984Z,16.33
2018-09-05T05:22:15.325Z,16.60
2018-09-05T05:24:43.629Z,20.03
2018-09-05T05:27:11.951Z,19.87
2018-09-05T05:29:40.259Z,19.47
2018-09-05T05:32:08.584Z,21.07
2018-09-05T05:34:36.904Z,24.60
2018-09-05T05:37:05.262Z,20.73
2018-09-05T05:39:33.601Z,17.73
2018-09-05T05:42:01.920Z,21.33
2018-09-05T05:44:30.244Z,21.50
2018-09-05T05:46:58.579Z,22.87
2018-09-05T05:49:26.880Z,21.30
2018-09-05T05:51:55.204Z,22.43
2018-09-05T05:54:23.504Z,26.47
2018-09-05T05:56:51.944Z,27.77
2018-09-05T05:59:20.376Z,29.20
2018-09-05T06:01:48.707Z,29.00
2018-09-05T06:04:17.007Z,29.00
2018-09-05T06:06:45.406Z,32.90
2018-09-05T06:09:13.715Z,34.27
2018-09-05T06:11:42.044Z,33.80
2018-09-05T06:14:10.349Z,34.57
2018-09-05T06:16:40.243Z,34.70
2018-09-05T06:19:08.608Z,35.23
2018-09-05T06:21:36.924Z,31.37
2018-09-05T06:24:05.254Z,34.37
2018-09-05T06:26:33.661Z,30.13
2018-09-05T06:29:01.959Z,21.23
2018-09-05T06:31:30.281Z,29.63
2018-09-05T06:33:58.679Z,22.37
2018-09-05T06:36:27.029Z,20.70
2018-09-05T06:38:55.409Z,26.00
2018-09-05T06:41:23.709Z,23.23
2018-09-05T06:43:52.012Z,23.07
2018-09-05T06:46:20.347Z,26.77
2018-09-05T06:48:48.750Z,23.17
2018-09-05T06:51:17.122Z,23.00
2018-09-05T06:53:45.420Z,24.13
2018-09-05T06:56:13.724Z,24.90
2018-09-05T06:58:42.057Z,19.33
2018-09-05T07:01:10.428Z,22.77
2018-09-05T07:03:38.839Z,25.00
2018-09-05T07:06:07.153Z,26.97
2018-09-05T07:08:35.483Z,26.07
2018-09-05T07:11:03.884Z,26.97
2018-09-05T07:13:32.224Z,25.70
2018-09-05T07:16:00.564Z,26.27
2018-09-05T07:18:28.896Z,27.40
2018-09-05T07:21:05.685Z,26.40
2018-09-05T07:23:25.585Z,29.00
2018-09-05T07:25:53.897Z,27.37
2018-09-05T07:28:22.221Z,27.70
2018-09-05T07:30:50.597Z,27.00
2018-09-05T07:33:18.876Z,29.17
2018-09-05T07:35:47.249Z,28.47
2018-09-05T07:38:15.564Z,29.00
2018-09-05T07:40:43.881Z,23.63
2018-09-05T07:43:12.205Z,28.17
2018-09-05T07:45:40.816Z,27.90
2018-09-05T07:48:09.192Z,26.57
2018-09-05T07:50:37.555Z,26.10
2018-09-05T07:53:05.872Z,26.60
2018-09-05T07:55:34.177Z,24.80
2018-09-05T07:58:02.504Z,23.03
2018-09-05T08:00:30.810Z,22.53
2018-09-05T08:02:59.172Z,20.63
2018-09-05T08:05:27.469Z,22.70
2018-09-05T08:07:55.816Z,29.50
2018-09-05T08:10:24.120Z,26.20
2018-09-05T08:12:52.443Z,26.60
2018-09-05T08:15:20.739Z,26.37
2018-09-05T08:17:49.064Z,26.50
2018-09-05T08:20:17.376Z,25.37
2018-09-05T08:22:45.761Z,21.73
2018-09-05T08:25:14.068Z,28.40
2018-09-05T08:27:42.388Z,23.10
2018-09-05T08:30:10.786Z,22.80
2018-09-05T08:32:39.024Z,22.43
2018-09-05T08:35:07.845Z,21.43
2018-09-05T08:37:36.365Z,24.70
2018-09-05T08:40:04.439Z,26.47
2018-09-05T08:42:33.823Z,25.53
2018-09-05T08:45:02.874Z,19.77
2018-09-05T08:47:31.566Z,18.73
2018-09-05T08:50:00.836Z,21.17
2018-09-05T08:52:29.259Z,16.07
2018-09-05T08:54:57.572Z,13.43
2018-09-05T08:57:25.877Z,15.07
2018-09-05T08:59:54.201Z,14.50
2018-09-05T09:02:22.501Z,14.50
2018-09-05T09:04:50.932Z,14.93
2018-09-05T09:07:19.225Z,15.00
2018-09-05T09:09:47.552Z,15.97
2018-09-05T09:12:15.896Z,15.70
2018-09-05T09:14:44.212Z,15.13
2018-09-05T09:17:12.508Z,14.20
2018-09-05T09:19:40.828Z,14.73
2018-09-05T09:22:09.128Z,14.30
2018-09-05T09:24:37.456Z,12.67
2018-09-05T09:27:06.844Z,13.20
2018-09-05T09:29:36.491Z,13.70
2018-09-05T09:32:06.307Z,13.23
2018-09-05T09:34:35.749Z,13.23
2018-09-05T09:37:05.376Z,13.63
2018-09-05T09:39:34.535Z,13.40
2018-09-05T09:42:04.089Z,12.63
2018-09-05T09:44:33.547Z,12.37
2018-09-05T09:47:03.259Z,12.77
2018-09-05T09:49:32.744Z,11.40
2018-09-05T09:52:07.488Z,13.07
2018-09-05T09:54:37.243Z,12.37
2018-09-05T09:57:06.778Z,10.60
2018-09-05T09:59:36.056Z,10.30
2018-09-05T10:02:10.339Z,10.67
2018-09-05T10:04:44.706Z,10.13
2018-09-05T10:07:18.615Z,11.13
2018-09-05T10:09:55.409Z,10.03
2018-09-05T10:12:29.046Z,10.10
2018-09-05T10:15:06.602Z,9.60
2018-09-05T10:17:36.492Z,10.33
2018-09-05T10:20:05.103Z,10.90
2018-09-05T10:22:33.596Z,9.40
2018-09-05T10:25:01.939Z,10.00
2018-09-05T10:27:30.236Z,11.50
2018-09-05T10:29:58.877Z,10.10
2018-09-05T10:32:27.204Z,18.67
2018-09-05T10:34:56.320Z,12.73
2018-09-05T10:37:24.963Z,9.60
2018-09-05T10:39:53.285Z,12.07
2018-09-05T10:42:21.584Z,12.07
2018-09-05T10:44:49.980Z,8.77
2018-09-05T10:47:18.273Z,10.30
2018-09-05T10:49:46.597Z,11.00
2018-09-05T10:52:14.888Z,8.87
2018-09-05T10:54:43.200Z,8.90
2018-09-05T10:57:11.506Z,9.70
2018-09-05T10:59:39.821Z,8.30
2018-09-05T11:02:08.120Z,9.67
2018-09-05T11:04:36.437Z,10.90
2018-09-05T11:07:04.928Z,9.63
2018-09-05T11:09:33.235Z,9.30
2018-09-05T11:12:01.523Z,9.40
2018-09-05T11:14:29.847Z,10.20
2018-09-05T11:16:58.148Z,9.10
2018-09-05T11:19:26.495Z,8.60
2018-09-05T11:21:54.787Z,8.93
2018-09-05T11:24:23.252Z,8.63
2018-09-05T11:26:51.559Z,8.30
2018-09-05T11:29:19.867Z,7.80
2018-09-05T11:31:48.171Z,9.20
2018-09-05T11:34:16.505Z,7.80
2018-09-05T11:36:44.800Z,7.47
2018-09-05T11:39:14.152Z,8.50
2018-09-05T11:41:42.463Z,7.93
2018-09-05T11:44:10.796Z,7.40
2018-09-05T11:46:39.516Z,9.17
2018-09-05T11:49:08.843Z,9.27
2018-09-05T11:51:37.424Z,8.63
2018-09-05T11:54:06.337Z,7.60
2018-09-05T11:56:34.652Z,7.90
2018-09-05T11:59:02.984Z,7.90
2018-09-05T12:01:31.288Z,7.63
2018-09-05T12:03:59.810Z,7.90
2018-09-05T12:06:28.152Z,7.50
2018-09-05T12:11:32.152Z,7.87
2018-09-05T12:14:00.469Z,7.97
2018-09-05T12:16:28.781Z,7.03
2018-09-05T12:18:57.072Z,6.97
2018-09-05T12:21:25.389Z,6.80
2018-09-05T12:23:53.704Z,7.30
2018-09-05T12:26:22.021Z,7.73
2018-09-05T12:28:50.331Z,7.30
2018-09-05T12:31:18.647Z,7.73
2018-09-05T12:33:46.940Z,6.43
2018-09-05T12:36:15.243Z,7.10
2018-09-05T12:38:43.549Z,7.10
2018-09-05T12:41:11.872Z,7.07
2018-09-05T12:43:40.792Z,7.30
2018-09-05T12:46:09.149Z,7.40
2018-09-05T12:48:37.452Z,6.73
2018-09-05T12:51:05.793Z,6.50
2018-09-05T12:53:34.096Z,7.10
2018-09-05T12:56:02.428Z,7.20
2018-09-05T12:58:30.796Z,7.53
2018-09-05T13:00:59.116Z,6.70
2018-09-05T13:03:27.425Z,7.77
2018-09-05T13:05:55.740Z,6.53
2018-09-05T13:08:24.160Z,6.93
2018-09-05T13:10:52.571Z,6.90
2018-09-05T13:13:20.905Z,7.03
2018-09-05T13:15:49.208Z,6.40
2018-09-05T13:18:17.505Z,7.27
2018-09-05T13:20:45.812Z,6.50
2018-09-05T13:23:14.124Z,7.27
2018-09-05T13:25:42.439Z,7.07
2018-09-05T13:28:12.239Z,6.50
2018-09-05T13:30:40.629Z,6.73
2018-09-05T13:33:09.149Z,6.40
2018-09-05T13:35:37.544Z,7.20
2018-09-05T13:38:06.006Z,7.13
2018-09-05T13:40:34.404Z,7.60
2018-09-05T13:43:02.744Z,7.43
2018-09-05T13:45:31.052Z,6.63
2018-09-05T13:47:59.400Z,7.03
2018-09-05T13:50:27.792Z,6.97
2018-09-05T13:52:56.085Z,7.90
2018-09-05T13:55:24.413Z,6.50
2018-09-05T13:57:52.732Z,7.03
2018-09-05T14:00:21.053Z,7.43
2018-09-05T14:02:49.374Z,7.13
2018-09-05T14:05:17.960Z,6.73
2018-09-05T14:07:46.276Z,6.23
2018-09-05T14:10:15.791Z,7.33
2018-09-05T14:12:44.195Z,6.53
2018-09-05T14:15:12.664Z,7.67
2018-09-05T14:17:40.977Z,7.00
2018-09-05T14:20:09.297Z,6.67
2018-09-05T14:22:37.811Z,7.00
2018-09-05T14:25:06.132Z,7.20
2018-09-05T14:27:34.462Z,6.87
2018-09-05T14:30:02.817Z,6.30
2018-09-05T14:32:31.128Z,7.07
2018-09-05T14:34:59.415Z,6.97
2018-09-05T14:37:27.727Z,8.20
2018-09-05T14:39:56.042Z,6.27
2018-09-05T14:42:24.400Z,6.10
2018-09-05T14:44:52.700Z,6.50
2018-09-05T14:47:21.007Z,6.60
2018-09-05T14:49:49.407Z,6.50
2018-09-05T14:52:17.725Z,6.07
2018-09-05T14:54:46.020Z,6.07
2018-09-05T14:57:14.340Z,7.40
2018-09-05T14:59:42.690Z,6.57
2018-09-05T15:02:10.992Z,6.83
2018-09-05T15:04:39.548Z,6.93
2018-09-05T15:07:07.912Z,6.90
2018-09-05T15:09:36.213Z,5.73
2018-09-05T15:12:04.533Z,7.73
2018-09-05T15:14:32.836Z,6.80
2018-09-05T15:17:01.202Z,7.47
2018-09-05T15:19:29.523Z,6.13
2018-09-05T15:21:57.932Z,6.67
2018-09-05T15:24:26.229Z,6.73
2018-09-05T15:26:54.548Z,6.50
2018-09-05T15:29:22.844Z,6.20
2018-09-05T15:31:51.161Z,6.70
2018-09-05T15:34:19.461Z,7.57
2018-09-05T15:36:47.776Z,6.67
2018-09-05T15:39:16.082Z,6.80
2018-09-05T15:41:44.548Z,5.60
2018-09-05T15:44:12.836Z,6.67
2018-09-05T15:46:41.397Z,7.30
2018-09-05T15:49:09.732Z,6.70
2018-09-05T15:51:38.161Z,6.20
2018-09-05T15:54:06.504Z,6.23
2018-09-05T15:56:34.912Z,5.93
2018-09-05T15:59:03.228Z,6.20
2018-09-05T16:01:31.548Z,6.50
2018-09-05T16:03:59.853Z,6.70
2018-09-05T16:06:28.196Z,7.10
2018-09-05T16:08:56.493Z,5.47
2018-09-05T16:11:24.804Z,5.70
2018-09-05T16:13:53.099Z,6.20
2018-09-05T16:16:21.436Z,5.87
2018-09-05T16:18:49.750Z,7.00
2018-09-05T16:21:18.085Z,6.97
2018-09-05T16:23:46.376Z,6.73
2018-09-05T16:26:14.699Z,6.47
2018-09-05T16:28:43.016Z,6.70
2018-09-05T16:31:11.329Z,6.17
2018-09-05T16:33:39.812Z,6.07
2018-09-05T16:36:08.127Z,5.93
2018-09-05T16:38:36.468Z,5.67
2018-09-05T16:41:04.807Z,6.03
2018-09-05T16:43:33.113Z,5.63
2018-09-05T16:46:01.492Z,6.60
2018-09-05T16:48:29.848Z,6.23
2018-09-05T16:50:58.129Z,6.07
2018-09-05T16:53:26.561Z,6.80
2018-09-05T16:55:54.856Z,5.67
2018-09-05T16:58:23.232Z,6.10
2018-09-05T17:00:51.573Z,6.50
2018-09-05T17:03:19.865Z,6.23
2018-09-05T17:05:48.172Z,5.87
2018-09-05T17:08:16.561Z,6.20
2018-09-05T17:10:47.250Z,6.87
2018-09-05T17:13:15.578Z,6.10
2018-09-05T17:15:43.960Z,6.50
2018-09-05T17:18:12.297Z,6.37
2018-09-05T17:20:41.517Z,6.37
2018-09-05T17:23:09.904Z,6.47
2018-09-05T17:25:38.292Z,6.27
2018-09-05T17:28:07.004Z,6.23
2018-09-05T17:30:35.320Z,6.67
2018-09-05T17:33:03.644Z,7.40
2018-09-05T17:35:32.124Z,7.40
2018-09-05T17:38:00.440Z,7.60
2018-09-05T17:40:29.552Z,7.23
2018-09-05T17:42:57.909Z,7.57
2018-09-05T17:45:26.216Z,7.60
2018-09-05T17:47:55.335Z,7.33
2018-09-05T17:50:23.690Z,7.30
2018-09-05T17:52:52.476Z,8.33
2018-09-05T17:55:20.797Z,8.87
2018-09-05T17:57:49.123Z,8.23
2018-09-05T18:00:17.420Z,8.70
2018-09-05T18:02:45.837Z,8.40
2018-09-05T18:05:14.752Z,7.53
2018-09-05T18:07:43.097Z,8.00
2018-09-05T18:10:11.391Z,8.33
2018-09-05T18:12:40.009Z,8.33
2018-09-05T18:15:08.304Z,8.90
2018-09-05T18:17:36.940Z,8.80
2018-09-05T18:20:05.383Z,8.80
2018-09-05T18:22:33.700Z,9.50
2018-09-05T18:25:03.093Z,8.87
2018-09-05T18:27:31.516Z,9.30
2018-09-05T18:29:59.956Z,8.70
2018-09-05T18:32:28.268Z,8.83
2018-09-05T18:34:56.596Z,9.20
2018-09-05T18:37:24.923Z,8.90
2018-09-05T18:39:53.244Z,9.40
2018-09-05T18:42:22.331Z,8.07
2018-09-05T18:44:51.301Z,8.57
2018-09-05T18:47:19.636Z,7.80
2018-09-05T18:49:48.688Z,8.27
2018-09-05T18:52:17.874Z,7.47
2018-09-05T18:54:46.769Z,8.50
2018-09-05T18:57:15.064Z,8.10
2018-09-05T18:59:43.389Z,8.00
2018-09-05T19:02:11.693Z,7.73
2018-09-05T19:04:40.059Z,9.20
2018-09-05T19:07:08.387Z,8.37
2018-09-05T19:09:36.702Z,7.50
2018-09-05T19:12:05.041Z,8.70
2018-09-05T19:14:33.364Z,7.60
2018-09-05T19:17:01.673Z,8.40
2018-09-05T19:19:30.009Z,9.40
2018-09-05T19:21:58.369Z,7.77
2018-09-05T19:24:26.709Z,8.23
2018-09-05T19:26:55.003Z,8.23
2018-09-05T19:29:23.345Z,7.20
2018-09-05T19:31:51.700Z,9.90
2018-09-05T19:34:20.040Z,7.60
2018-09-05T19:36:48.351Z,8.33
2018-09-05T19:39:16.692Z,8.90
2018-09-05T19:41:44.997Z,8.93
2018-09-05T19:44:13.342Z,8.50
2018-09-05T19:46:41.656Z,8.10
2018-09-05T19:49:09.989Z,9.20
2018-09-05T19:51:38.388Z,9.17
2018-09-05T19:54:06.732Z,7.70
2018-09-05T19:56:35.128Z,9.10
2018-09-05T19:59:03.441Z,9.30
2018-09-05T20:01:31.744Z,7.90
2018-09-05T20:04:00.104Z,8.53
2018-09-05T20:06:28.400Z,8.20
2018-09-05T20:08:56.752Z,9.20
2018-09-05T20:11:25.060Z,8.50
2018-09-05T20:13:53.376Z,7.70
2018-09-05T20:16:21.675Z,8.37
2018-09-05T20:18:49.992Z,9.50
2018-09-05T20:21:18.284Z,8.53
2018-09-05T20:23:46.656Z,8.30
2018-09-05T20:26:15.328Z,8.03
2018-09-05T20:28:43.651Z,8.23
2018-09-05T20:31:11.952Z,9.00
2018-09-05T20:33:40.264Z,8.00
2018-09-05T20:36:08.556Z,8.47
2018-09-05T20:38:36.863Z,8.63
2018-09-05T20:41:05.250Z,8.40
2018-09-05T20:43:33.619Z,8.70
2018-09-05T20:46:01.904Z,8.43
2018-09-05T20:48:30.229Z,8.20
2018-09-05T20:50:58.571Z,8.90
2018-09-05T20:53:27.306Z,8.43
2018-09-05T20:55:55.623Z,8.40
2018-09-05T20:58:23.941Z,8.60
2018-09-05T21:00:52.245Z,8.67
2018-09-05T21:03:20.572Z,9.30
2018-09-05T21:05:48.868Z,9.37
2018-09-05T21:08:17.199Z,8.43
2018-09-05T21:10:45.540Z,8.77
2018-09-05T21:13:13.872Z,9.03
2018-09-05T21:15:42.220Z,9.10
2018-09-05T21:18:10.569Z,8.67
2018-09-05T21:20:38.907Z,9.53
2018-09-05T21:23:07.220Z,10.20
2018-09-05T21:25:35.543Z,8.70
2018-09-05T21:28:03.844Z,9.33
2018-09-05T21:30:32.159Z,8.73
2018-09-05T21:33:00.460Z,9.57
2018-09-05T21:35:28.792Z,8.07
2018-09-05T21:37:57.093Z,8.53
2018-09-05T21:40:25.474Z,9.07
2018-09-05T21:42:53.776Z,9.90
2018-09-05T21:45:22.205Z,10.40
2018-09-05T21:47:50.536Z,8.60
2018-09-05T21:50:18.869Z,9.50
2018-09-05T21:52:47.217Z,9.00
2018-09-05T21:55:15.580Z,8.97
2018-09-05T21:57:43.907Z,7.83
2018-09-05T22:00:12.632Z,8.00
2018-09-05T22:02:40.928Z,9.63
2018-09-05T22:05:09.285Z,8.93
2018-09-05T22:07:37.614Z,8.60
2018-09-05T22:10:05.952Z,7.33
2018-09-05T22:12:34.276Z,8.47
2018-09-05T22:15:02.608Z,9.33
2018-09-05T22:17:30.945Z,8.30
2018-09-05T22:19:59.267Z,8.87
2018-09-05T22:22:27.566Z,9.00
2018-09-05T22:24:55.913Z,7.97
2018-09-05T22:27:24.212Z,8.97
2018-09-05T22:29:52.559Z,8.77
2018-09-05T22:32:20.927Z,9.53
2018-09-05T22:34:49.204Z,8.70
2018-09-05T22:37:17.520Z,8.23
2018-09-05T22:39:45.900Z,8.00
2018-09-05T22:42:14.224Z,9.13
2018-09-05T22:44:55.264Z,9.50
2018-09-05T22:48:38.681Z,9.17
2018-09-05T22:52:26.725Z,9.10
2018-09-05T22:56:16.061Z,8.37
2018-09-05T22:58:55.597Z,9.20
2018-09-05T23:03:43.845Z,8.17
2018-09-05T23:06:26.418Z,9.50
2018-09-05T23:08:54.747Z,9.27
2018-09-05T23:12:36.992Z,8.93
2018-09-05T23:15:16.771Z,8.57
2018-09-05T23:18:11.014Z,8.90
2018-09-05T23:20:52.737Z,9.10
2018-09-05T23:23:32.535Z,8.80
2018-09-05T23:26:00.888Z,10.10
2018-09-05T23:28:29.205Z,8.70
2018-09-05T23:30:57.553Z,8.93
2018-09-05T23:33:25.910Z,8.90
2018-09-05T23:35:54.237Z,9.67
2018-09-05T23:38:22.541Z,8.80
2018-09-05T23:40:50.865Z,9.30
2018-09-05T23:43:19.178Z,8.17
2018-09-05T23:45:47.504Z,8.50
2018-09-05T23:48:15.833Z,9.80
2018-09-05T23:50:44.197Z,8.90
2018-09-05T23:53:12.549Z,9.50
2018-09-05T23:55:40.874Z,9.10
2018-09-05T23:58:09.195Z,8.83
